Rugby, ND

5:24 PM CST on January 20, 2018 (GMT -0600)
Rugby Municipal

Weather History for KRUG - April, 2013

Change the Weather History Date:

Monday, April 22, 2013

  Actual Average Record
Temperature  
Mean Temperature 22 °F -  
Max Temperature 28 °F 59 °F 95 °F (1980)
Min Temperature 17 °F 33 °F 16 °F (1967)
Degree Days  
Heating Degree Days 42    
Moisture  
Dew Point 21 °F    
Average Humidity 82    
Maximum Humidity 93    
Minimum Humidity 64    
Precipitation  
Precipitation 0.00 in - - ()
Sea Level Pressure  
Sea Level Pressure 30.31 in    
Wind  
Wind Speed 14 mph (NW)    
Max Wind Speed 21 mph    
Max Gust Speed 24 mph    
Visibility 10 miles    
Events Thunderstorm    
Averages and records for this station are not official NWS values.
T = Trace of Precipitation, MM = Missing Value Source: NWS Daily Summary

Daily Weather History Graph

Daily Weather History Graph

Search for Another Location

Airport or City:

Trip Planner

Search our weather history database for the weather conditions in past years. The results will help you decide how hot, cold, wet, or windy it might be!

Date:

Astronomy

Apr. 22, 2013 Rise Set
Actual Time 6:36 AM CDT 8:41 PM CDT
Civil Twilight 6:02 AM CDT 9:15 PM CDT
Nautical Twilight 5:20 AM CDT 9:57 PM CDT
Astronomical Twilight 4:33 AM CDT 10:45 PM CDT
Moon 5:19 PM CDT (4/22) 4:47 AM CDT (4/22)
Length of Visible Light 15h 13m
Length of Day
14h 05m
Waxing Gibbous, 88% of the Moon is Illuminated
Apr 22
Waxing Gibbous
Apr 25
Full
May 2
Last Quarter
May 9
New
May 17
First Quarter

Hourly Weather History & Observations

Time (CDT) Temp. Windchill Dew Point Humidity Pressure Visibility Wind Dir Wind Speed Gust Speed Precip Events Conditions
12:15 AM 26.6 °F 13.4 °F 21.2 °F 80% 30.18 in 10.0 mi NNW 18.4 mph - N/A   Overcast
12:35 AM 26.6 °F 13.4 °F 23.0 °F 86% 30.20 in 10.0 mi NW 18.4 mph 24.2 mph N/A   Overcast
12:55 AM 28.4 °F 17.0 °F 23.0 °F 80% 30.21 in 10.0 mi NNW 15.0 mph - N/A   Overcast
1:15 AM 28.4 °F 17.5 °F 23.0 °F 80% 30.21 in 10.0 mi NNW 13.8 mph - N/A   Overcast
1:35 AM 26.6 °F 15.2 °F 23.0 °F 86% 30.22 in 10.0 mi NNW 13.8 mph - N/A   Overcast
1:55 AM 26.6 °F 15.2 °F 23.0 °F 86% 30.22 in 10.0 mi NNW 13.8 mph - N/A   Overcast
2:15 AM 26.6 °F 13.4 °F 21.2 °F 80% 30.23 in 10.0 mi NW 18.4 mph 21.9 mph N/A   Overcast
2:35 AM 26.6 °F 16.2 °F 21.2 °F 80% 30.24 in 10.0 mi NW 11.5 mph - N/A   Overcast
2:55 AM 26.6 °F 14.7 °F 23.0 °F 86% 30.23 in 10.0 mi NW 15.0 mph - N/A   Overcast
3:15 AM 26.6 °F 14.3 °F 23.0 °F 86% 30.23 in 10.0 mi NW 16.1 mph - N/A   Overcast
3:35 AM 26.6 °F 13.8 °F 23.0 °F 86% 30.23 in 10.0 mi NW 17.3 mph - N/A   Overcast
3:55 AM 26.6 °F 14.3 °F 23.0 °F 86% 30.24 in 10.0 mi NW 16.1 mph - N/A   Overcast
4:15 AM 26.6 °F 15.2 °F 23.0 °F 86% 30.24 in 10.0 mi NW 13.8 mph - N/A   Overcast
4:35 AM 26.6 °F 15.2 °F 23.0 °F 86% 30.25 in 10.0 mi NW 13.8 mph - N/A   Overcast
4:55 AM 26.6 °F 15.2 °F 23.0 °F 86% 30.26 in 10.0 mi NW 13.8 mph - N/A   Overcast
5:15 AM 26.6 °F 15.7 °F 23.0 °F 86% 30.26 in 10.0 mi NW 12.7 mph - N/A   Overcast
5:35 AM 24.8 °F 12.9 °F 23.0 °F 93% 30.26 in 10.0 mi NW 13.8 mph - N/A   Overcast
5:55 AM 24.8 °F 14.6 °F 23.0 °F 93% 30.26 in 10.0 mi NW 10.4 mph - N/A   Overcast
6:15 AM 24.8 °F 16.1 °F 23.0 °F 93% 30.27 in 10.0 mi NW 8.1 mph - N/A   Overcast
6:35 AM 24.8 °F 14.0 °F 23.0 °F 93% 30.27 in 10.0 mi NW 11.5 mph - N/A   Overcast
6:55 AM 24.8 °F 13.4 °F 23.0 °F 93% 30.28 in 10.0 mi NW 12.7 mph - N/A   Overcast
7:15 AM 24.8 °F 14.6 °F 23.0 °F 93% 30.28 in 10.0 mi NW 10.4 mph - N/A   Overcast
7:35 AM 24.8 °F 13.4 °F 21.2 °F 86% 30.29 in 10.0 mi NW 12.7 mph - N/A   Overcast
7:55 AM 24.8 °F 15.3 °F 19.4 °F 80% 30.30 in 10.0 mi NW 9.2 mph - N/A   Overcast
8:15 AM 24.8 °F 15.3 °F 21.2 °F 86% 30.31 in 10.0 mi NW 9.2 mph - N/A   Overcast
8:35 AM 24.8 °F 14.0 °F 21.2 °F 86% 30.32 in 10.0 mi NW 11.5 mph - N/A   Overcast
8:55 AM 26.6 °F 18.2 °F 19.4 °F 74% 30.32 in 10.0 mi NNW 8.1 mph - N/A   Overcast
9:15 AM 24.8 °F 14.6 °F 21.2 °F 86% 30.33 in 10.0 mi WNW 10.4 mph - N/A   Overcast
9:35 AM 24.8 °F 14.6 °F 21.2 °F 86% 30.34 in 10.0 mi NW 10.4 mph - N/A   Overcast
9:55 AM 24.8 °F 14.0 °F 21.2 °F 86% 30.34 in 10.0 mi WNW 11.5 mph - N/A   Overcast
10:15 AM 24.8 °F 13.4 °F 19.4 °F 80% 30.34 in 10.0 mi NW 12.7 mph - N/A   Overcast
10:35 AM 24.8 °F 13.4 °F 19.4 °F 80% 30.35 in 10.0 mi WNW 12.7 mph - N/A   Mostly Cloudy
10:55 AM 24.8 °F 14.0 °F 19.4 °F 80% 30.35 in 10.0 mi NW 11.5 mph - N/A   Clear
11:15 AM 24.8 °F 14.0 °F 21.2 °F 86% 30.35 in 10.0 mi WNW 11.5 mph - N/A   Clear
11:35 AM 26.6 °F 15.7 °F 21.2 °F 80% 30.36 in 10.0 mi WNW 12.7 mph - N/A Thunderstorm Thunderstorm
11:55 AM 26.6 °F 15.2 °F 23.0 °F 86% 30.36 in 10.0 mi NW 13.8 mph - N/A   Clear
12:15 PM 26.6 °F 15.7 °F 23.0 °F 86% 30.36 in 10.0 mi NW 12.7 mph - N/A   Clear
12:35 PM 26.6 °F 15.7 °F 23.0 °F 86% 30.36 in 10.0 mi NW 12.7 mph - N/A   Clear
12:55 PM 26.6 °F 15.7 °F 23.0 °F 86% 30.36 in 10.0 mi NW 12.7 mph - N/A   Clear
1:15 PM 28.4 °F 17.0 °F 23.0 °F 80% 30.36 in 10.0 mi NW 15.0 mph - N/A   Clear
1:35 PM 28.4 °F 17.5 °F 23.0 °F 80% 30.36 in 10.0 mi NW 13.8 mph - N/A   Clear
1:55 PM 28.4 °F 16.2 °F 23.0 °F 80% 30.36 in 10.0 mi WNW 17.3 mph - N/A   Partly Cloudy
2:15 PM 28.4 °F 16.2 °F 23.0 °F 80% 30.36 in 10.0 mi WNW 17.3 mph 21.9 mph N/A   Partly Cloudy
2:35 PM 28.4 °F 15.4 °F 21.2 °F 74% 30.36 in 10.0 mi NW 19.6 mph - N/A   Partly Cloudy
2:55 PM 28.4 °F 15.8 °F 21.2 °F 74% 30.36 in 10.0 mi WNW 18.4 mph 21.9 mph N/A   Scattered Clouds
3:15 PM 28.4 °F 15.8 °F 21.2 °F 74% 30.36 in 10.0 mi NW 18.4 mph 24.2 mph N/A   Mostly Cloudy
3:35 PM 28.4 °F 16.2 °F 19.4 °F 69% 30.36 in 10.0 mi NW 17.3 mph - N/A   Scattered Clouds
3:55 PM 28.4 °F 15.4 °F 19.4 °F 69% 30.37 in 10.0 mi NW 19.6 mph - N/A   Scattered Clouds
4:15 PM 28.4 °F 16.2 °F 19.4 °F 69% 30.37 in 10.0 mi WNW 17.3 mph - N/A   Scattered Clouds
4:35 PM 28.4 °F 15.8 °F 19.4 °F 69% 30.36 in 10.0 mi NW 18.4 mph - N/A   Scattered Clouds
4:55 PM 28.4 °F 16.2 °F 19.4 °F 69% 30.36 in 10.0 mi NW 17.3 mph - N/A   Mostly Cloudy
5:15 PM 28.4 °F 15.1 °F 19.4 °F 69% 30.36 in 10.0 mi WNW 20.7 mph - N/A   Mostly Cloudy
5:35 PM 28.4 °F 15.8 °F 19.4 °F 69% 30.36 in 10.0 mi NW 18.4 mph - N/A   Mostly Cloudy
5:55 PM 28.4 °F 16.6 °F 17.6 °F 64% 30.35 in 10.0 mi WNW 16.1 mph - N/A   Scattered Clouds
6:15 PM 28.4 °F 16.6 °F 19.4 °F 69% 30.35 in 10.0 mi WNW 16.1 mph - N/A   Partly Cloudy
6:35 PM 28.4 °F 17.0 °F 19.4 °F 69% 30.35 in 10.0 mi NW 15.0 mph - N/A   Clear
6:55 PM 28.4 °F 17.5 °F 19.4 °F 69% 30.35 in 10.0 mi NW 13.8 mph - N/A   Clear
7:15 PM 26.6 °F 15.2 °F 19.4 °F 74% 30.35 in 10.0 mi WNW 13.8 mph - N/A   Clear
7:35 PM 26.6 °F 15.7 °F 19.4 °F 74% 30.35 in 10.0 mi WNW 12.7 mph - N/A   Clear
7:55 PM 26.6 °F 16.2 °F 19.4 °F 74% 30.34 in 10.0 mi WNW 11.5 mph - N/A   Clear
8:15 PM 24.8 °F 14.6 °F 19.4 °F 80% 30.34 in 10.0 mi WNW 10.4 mph - N/A   Clear
8:35 PM 24.8 °F 16.1 °F 17.6 °F 74% 30.34 in 10.0 mi WNW 8.1 mph - N/A   Clear
8:55 PM 21.2 °F 11.7 °F 17.6 °F 86% 30.34 in 10.0 mi West 8.1 mph - N/A   Clear
9:15 PM 19.4 °F 8.6 °F 15.8 °F 86% 30.34 in 10.0 mi West 9.2 mph - N/A   Clear
9:35 PM 19.4 °F 10.4 °F 15.8 °F 86% 30.35 in 10.0 mi West 6.9 mph - N/A   Clear
9:55 PM 17.6 °F 8.2 °F 15.8 °F 93% 30.35 in 10.0 mi West 6.9 mph - N/A   Clear
10:15 PM 17.6 °F 7.3 °F 15.8 °F 93% 30.35 in 10.0 mi West 8.1 mph - N/A   Clear
10:35 PM 17.6 °F 5.7 °F 15.8 °F 93% 30.35 in 10.0 mi WSW 10.4 mph - N/A   Clear
10:55 PM 17.6 °F 6.4 °F 15.8 °F 93% 30.34 in 10.0 mi WSW 9.2 mph - N/A   Clear
11:15 PM 17.6 °F 6.4 °F 14.0 °F 86% 30.34 in 10.0 mi WSW 9.2 mph - N/A   Clear
11:35 PM 17.6 °F 6.4 °F 15.8 °F 93% 30.34 in 10.0 mi WSW 9.2 mph - N/A   Clear
11:55 PM 17.6 °F 6.4 °F 15.8 °F 93% 30.33 in 10.0 mi WSW 9.2 mph - N/A   Clear